Time;durP1;ratioP1;P1;durP2;ratioP2;P2;SDS_P1;SDS_P2;PMS_P1;PMS_P2;Temp;Humidity;BMP_temperature;BMP_pressure;BME280_temperature;BME280_humidity;BME280_pressure;Samples;Min_cycle;Max_cycle;Signal;HPM_P1;HPM_P2
2023/03/29 00:01:55;;;;;;;;;;;;;;;3.01;39.27;101253.44;5362119;32;33770;-63
2023/03/29 00:05:00;;;;;;;;;;;;;;;3.44;38.70;101245.84;5340661;32;33676;-63
2023/03/29 00:08:03;;;;;;;;;;;;;;;3.77;37.83;101248.53;5370200;32;33192;-63
2023/03/29 00:11:06;;;;;;;;;;;;;;;2.98;38.56;101253.44;5358017;32;34289;-62
2023/03/29 00:14:08;;;;;;;;;;;;;;;2.59;39.12;101248.84;5371049;32;36865;-68
2023/03/29 00:17:10;;;;;;;;;;;;;;;2.84;39.38;101255.09;5358113;32;48029;-68
2023/03/29 00:20:12;;;;;;;;;;;;;;;2.66;39.54;101256.69;5367308;32;33627;-63
2023/03/29 00:23:17;;;;;;;;;;;;;;;3.08;38.68;101256.94;5365805;32;33777;-67
2023/03/29 00:26:19;;;;;;;;;;;;;;;3.01;39.31;101257.75;5357414;32;33652;-65
2023/03/29 00:29:21;;;;;;;;;;;;;;;3.08;38.96;101259.53;5372666;32;34309;-63
2023/03/29 00:32:22;;;;;;;;;;;;;;;3.52;37.89;101246.72;5355665;32;33999;-67
2023/03/29 00:35:24;;;;;;;;;;;;;;;3.35;38.52;101258.78;5371044;32;34743;-63
2023/03/29 00:38:26;;;;;;;;;;;;;;;3.92;37.60;101246.84;5358698;32;34353;-66
2023/03/29 00:41:28;;;;;;;;;;;;;;;4.25;37.71;101257.31;5367639;32;34038;-65
2023/03/29 00:44:49;;;;;;;;;;;;;;;4.38;37.63;101257.28;5364705;32;33279;-68
2023/03/29 00:47:55;;;;;;;;;;;;;;;3.75;39.15;101259.81;5357890;32;35309;-69
2023/03/29 00:50:59;;;;;;;;;;;;;;;3.68;39.36;101253.72;5371165;32;34194;-68
2023/03/29 00:54:02;;;;;;;;;;;;;;;3.89;39.18;101249.44;5357752;32;33759;-63
2023/03/29 00:57:04;;;;;;;;;;;;;;;4.31;38.64;101264.22;5370956;32;34232;-63
2023/03/29 01:00:08;;;;;;;;;;;;;;;3.53;40.61;101262.31;5358278;32;34093;-67
2023/03/29 01:03:23;;;;;;;;;;;;;;;3.06;41.58;101256.94;5352216;32;46642;-63
2023/03/29 01:06:25;;;;;;;;;;;;;;;2.29;43.84;101258.13;5351147;32;34164;-68
2023/03/29 01:09:29;;;;;;;;;;;;;;;3.01;42.42;101247.37;5357064;32;33534;-64
2023/03/29 01:12:34;;;;;;;;;;;;;;;2.83;43.19;101249.00;5376459;32;33627;-64
2023/03/29 01:15:36;;;;;;;;;;;;;;;3.37;41.98;101239.75;5341326;32;33613;-68
2023/03/29 01:18:38;;;;;;;;;;;;;;;3.22;42.14;101231.88;5359981;32;36856;-68
2023/03/29 01:21:44;;;;;;;;;;;;;;;3.04;42.69;101248.28;5366043;32;34467;-63
2023/03/29 01:24:52;;;;;;;;;;;;;;;2.80;43.12;101215.22;5357461;32;33361;-68
2023/03/29 01:28:05;;;;;;;;;;;;;;;2.28;44.19;101235.62;5370679;32;33771;-64
2023/03/29 01:31:08;;;;;;;;;;;;;;;2.62;43.77;101239.34;5356590;32;33861;-67
2023/03/29 01:34:12;;;;;;;;;;;;;;;2.92;43.14;101224.81;5374833;32;43806;-65
2023/03/29 01:37:16;;;;;;;;;;;;;;;2.69;43.38;101230.72;5357893;32;33657;-68
2023/03/29 01:40:21;;;;;;;;;;;;;;;2.77;42.96;101227.31;5356764;32;35395;-69
2023/03/29 01:43:23;;;;;;;;;;;;;;;2.88;43.07;101223.94;5369213;32;34194;-64
2023/03/29 01:46:39;;;;;;;;;;;;;;;2.81;42.92;101231.69;5354991;32;33155;-64
2023/03/29 01:49:44;;;;;;;;;;;;;;;2.42;43.75;101220.16;5371542;32;44153;-63
2023/03/29 01:53:06;;;;;;;;;;;;;;;2.00;44.66;101224.16;5354857;32;34037;-67
2023/03/29 01:56:12;;;;;;;;;;;;;;;2.71;43.33;101226.44;5355991;32;33713;-64
2023/03/29 01:59:16;;;;;;;;;;;;;;;2.74;43.36;101222.12;5371653;32;44487;-63
2023/03/29 02:02:19;;;;;;;;;;;;;;;3.05;42.83;101225.75;5355781;32;34163;-63
2023/03/29 02:05:21;;;;;;;;;;;;;;;2.18;44.43;101232.06;5350996;32;33792;-66
2023/03/29 02:08:23;;;;;;;;;;;;;;;2.83;43.67;101224.75;5358879;32;33640;-64
2023/03/29 02:11:26;;;;;;;;;;;;;;;2.26;44.51;101237.34;5366976;32;34665;-64
2023/03/29 02:14:29;;;;;;;;;;;;;;;2.57;43.91;101240.16;5360094;32;35842;-65
2023/03/29 02:17:31;;;;;;;;;;;;;;;3.03;43.01;101224.84;5355029;32;33587;-68
2023/03/29 02:20:37;;;;;;;;;;;;;;;3.19;42.47;101235.34;5372272;32;33439;-65
2023/03/29 02:23:40;;;;;;;;;;;;;;;3.01;42.95;101237.84;5353612;32;48092;-67
2023/03/29 02:26:42;;;;;;;;;;;;;;;2.82;42.48;101242.06;5374873;32;33626;-63
2023/03/29 02:29:45;;;;;;;;;;;;;;;3.06;42.08;101237.88;5359402;32;34267;-67
2023/03/29 02:32:52;;;;;;;;;;;;;;;2.87;42.87;101244.69;5361766;32;34754;-64
2023/03/29 02:35:55;;;;;;;;;;;;;;;3.03;42.47;101246.53;5366342;32;33982;-63
2023/03/29 02:38:58;;;;;;;;;;;;;;;3.19;42.08;101229.28;5355023;32;34307;-63
2023/03/29 02:41:59;;;;;;;;;;;;;;;3.68;41.02;101237.28;5354830;32;33801;-64
2023/03/29 02:45:01;;;;;;;;;;;;;;;3.27;41.57;101237.97;5353161;32;34761;-68
2023/03/29 02:48:04;;;;;;;;;;;;;;;2.65;42.71;101247.16;5372047;32;33661;-67
2023/03/29 02:51:08;;;;;;;;;;;;;;;2.90;42.41;101237.81;5354024;32;33890;-67
2023/03/29 02:54:18;;;;;;;;;;;;;;;3.59;41.26;101245.88;5357867;32;45159;-68
2023/03/29 02:57:25;;;;;;;;;;;;;;;3.33;41.70;101247.53;5368804;32;34021;-65
2023/03/29 03:00:27;;;;;;;;;;;;;;;3.15;42.08;101240.50;5357210;32;34188;-68
2023/03/29 03:03:30;;;;;;;;;;;;;;;3.70;41.03;101240.72;5373134;32;35165;-64
2023/03/29 03:06:32;;;;;;;;;;;;;;;2.42;44.52;101261.69;5343928;32;33719;-63
2023/03/29 03:09:34;;;;;;;;;;;;;;;2.94;43.26;101256.84;5370617;32;33823;-63
2023/03/29 03:12:36;;;;;;;;;;;;;;;2.91;43.80;101256.84;5356907;32;32992;-67
2023/03/29 03:15:41;;;;;;;;;;;;;;;3.08;43.57;101262.12;5356482;32;36536;-67
2023/03/29 03:18:44;;;;;;;;;;;;;;;3.01;43.74;101256.03;5373360;32;33011;-67
2023/03/29 03:21:46;;;;;;;;;;;;;;;2.49;44.77;101265.19;5354317;32;33698;-63
2023/03/29 03:24:48;;;;;;;;;;;;;;;2.16;45.91;101264.06;5371280;32;34064;-64
2023/03/29 03:27:50;;;;;;;;;;;;;;;2.33;45.66;101266.81;5356143;32;33602;-65
2023/03/29 03:30:53;;;;;;;;;;;;;;;3.21;44.09;101269.97;5365838;32;33275;-63
2023/03/29 03:33:55;;;;;;;;;;;;;;;2.44;45.03;101263.41;5358894;32;33794;-64
2023/03/29 03:37:00;;;;;;;;;;;;;;;2.90;44.25;101265.50;5354605;32;34842;-66
2023/03/29 03:40:03;;;;;;;;;;;;;;;3.14;43.86;101260.44;5370156;32;33676;-67
2023/03/29 03:43:05;;;;;;;;;;;;;;;3.00;44.11;101267.28;5352491;32;33432;-67
2023/03/29 03:46:08;;;;;;;;;;;;;;;3.16;43.59;101268.25;5368883;32;33132;-64
2023/03/29 03:49:10;;;;;;;;;;;;;;;2.37;45.26;101274.59;5354243;32;44495;-64
2023/03/29 03:52:12;;;;;;;;;;;;;;;2.92;44.67;101274.16;5363967;32;33707;-67
2023/03/29 03:55:15;;;;;;;;;;;;;;;3.17;43.13;101268.25;5361034;32;35607;-66
2023/03/29 03:58:17;;;;;;;;;;;;;;;3.47;42.95;101256.25;5355617;32;33516;-67
2023/03/29 04:01:19;;;;;;;;;;;;;;;3.43;43.17;101264.91;5370518;32;33689;-70
2023/03/29 04:04:22;;;;;;;;;;;;;;;4.06;41.73;101256.41;5342666;32;33755;-63
2023/03/29 04:07:24;;;;;;;;;;;;;;;3.66;41.92;101250.25;5362322;32;33206;-65
2023/03/29 04:10:26;;;;;;;;;;;;;;;3.20;43.27;101270.84;5354918;32;33709;-67
2023/03/29 04:13:28;;;;;;;;;;;;;;;2.56;44.71;101274.75;5362615;32;33942;-66
2023/03/29 04:16:30;;;;;;;;;;;;;;;3.33;42.95;101258.78;5362717;32;33836;-67
2023/03/29 04:19:32;;;;;;;;;;;;;;;3.26;43.08;101278.69;5355349;32;33577;-68
2023/03/29 04:22:34;;;;;;;;;;;;;;;2.58;43.86;101257.50;5370469;32;34128;-67
2023/03/29 04:25:36;;;;;;;;;;;;;;;3.73;42.44;101266.72;5357703;32;34022;-65
2023/03/29 04:28:39;;;;;;;;;;;;;;;2.43;44.41;101277.25;5368888;32;33556;-67
2023/03/29 04:31:41;;;;;;;;;;;;;;;3.13;43.69;101270.81;5352914;32;33925;-68
2023/03/29 04:34:43;;;;;;;;;;;;;;;2.20;45.25;101268.44;5361781;32;33712;-63
2023/03/29 04:37:45;;;;;;;;;;;;;;;2.96;43.88;101266.41;5366580;32;34590;-64
2023/03/29 04:40:47;;;;;;;;;;;;;;;3.37;42.69;101267.47;5354897;32;33934;-67
2023/03/29 04:43:50;;;;;;;;;;;;;;;3.76;41.97;101240.75;5374145;32;36171;-67
2023/03/29 04:46:52;;;;;;;;;;;;;;;3.39;42.48;101264.00;5354042;32;33170;-66
2023/03/29 04:49:54;;;;;;;;;;;;;;;4.16;40.68;101259.03;5373139;32;33580;-65
2023/03/29 04:52:59;;;;;;;;;;;;;;;4.37;39.36;101265.97;5356658;32;34204;-68
2023/03/29 04:56:01;;;;;;;;;;;;;;;3.66;40.40;101259.78;5360686;32;34060;-68
2023/03/29 04:59:04;;;;;;;;;;;;;;;3.72;39.96;101239.84;5365559;32;33969;-63
2023/03/29 05:02:06;;;;;;;;;;;;;;;4.36;39.11;101267.69;5356713;32;33755;-68
2023/03/29 05:05:08;;;;;;;;;;;;;;;4.19;38.84;101266.84;5353041;32;36472;-68
2023/03/29 05:08:11;;;;;;;;;;;;;;;4.30;38.29;101271.16;5351624;32;33986;-68
2023/03/29 05:11:14;;;;;;;;;;;;;;;3.46;40.36;101283.09;5369549;32;33367;-65
2023/03/29 05:14:16;;;;;;;;;;;;;;;4.27;39.19;101268.56;5354307;32;33581;-67
2023/03/29 05:17:18;;;;;;;;;;;;;;;4.85;38.18;101265.06;5358327;32;34259;-66
2023/03/29 05:20:20;;;;;;;;;;;;;;;4.65;38.51;101277.25;5369032;32;33694;-67
2023/03/29 05:23:23;;;;;;;;;;;;;;;4.61;38.24;101273.78;5356042;32;34804;-67
2023/03/29 05:26:25;;;;;;;;;;;;;;;4.86;38.15;101280.69;5369370;32;32673;-68
2023/03/29 05:29:27;;;;;;;;;;;;;;;4.46;38.19;101261.66;5355451;32;33837;-68
2023/03/29 05:32:29;;;;;;;;;;;;;;;5.09;37.06;101272.84;5366673;32;33124;-66
2023/03/29 05:35:31;;;;;;;;;;;;;;;3.95;38.79;101278.06;5356469;32;33404;-65
2023/03/29 05:38:34;;;;;;;;;;;;;;;3.57;39.32;101275.34;5358092;32;33224;-67
2023/03/29 05:41:36;;;;;;;;;;;;;;;3.72;39.07;101273.66;5367582;32;34677;-63
2023/03/29 05:44:39;;;;;;;;;;;;;;;4.27;38.59;101271.19;5355244;32;43597;-69
2023/03/29 05:47:41;;;;;;;;;;;;;;;4.67;37.84;101271.16;5373488;32;34304;-79
2023/03/29 05:50:47;;;;;;;;;;;;;;;4.92;37.27;101276.34;5347645;32;33315;-64
2023/03/29 05:53:50;;;;;;;;;;;;;;;5.14;36.64;101267.59;5368169;32;33119;-60
2023/03/29 05:56:52;;;;;;;;;;;;;;;4.56;37.38;101293.72;5351801;32;33283;-62
2023/03/29 05:59:55;;;;;;;;;;;;;;;4.76;37.76;101297.19;5355262;32;34304;-72
2023/03/29 06:02:57;;;;;;;;;;;;;;;5.09;36.56;101290.22;5367191;32;33147;-69
2023/03/29 06:06:10;;;;;;;;;;;;;;;5.17;36.37;101285.84;5334611;32;44800;-81
2023/03/29 06:09:12;;;;;;;;;;;;;;;4.11;38.58;101295.44;5369395;32;34337;-67
2023/03/29 06:12:14;;;;;;;;;;;;;;;4.68;37.85;101291.13;5352168;32;34107;-66
2023/03/29 06:15:17;;;;;;;;;;;;;;;4.26;38.06;101295.47;5374191;32;32823;-67
2023/03/29 06:18:19;;;;;;;;;;;;;;;5.46;36.49;101292.69;5364826;32;34814;-62
2023/03/29 06:21:25;;;;;;;;;;;;;;;6.28;34.68;101288.81;5358440;32;34145;-67
2023/03/29 06:24:27;;;;;;;;;;;;;;;4.88;37.23;101294.56;5362928;32;33096;-74
2023/03/29 06:27:29;;;;;;;;;;;;;;;5.05;36.62;101291.97;5356216;32;34854;-71
2023/03/29 06:30:31;;;;;;;;;;;;;;;6.09;34.11;101295.91;5379677;32;32875;-61
2023/03/29 06:33:36;;;;;;;;;;;;;;;5.75;35.06;101303.88;5355808;32;34979;-67
2023/03/29 06:36:37;;;;;;;;;;;;;;;5.75;35.49;101303.88;5363990;32;33005;-65
2023/03/29 06:39:40;;;;;;;;;;;;;;;6.61;33.37;101298.13;5372715;32;44686;-69
2023/03/29 06:42:43;;;;;;;;;;;;;;;6.87;32.64;101305.75;5362684;32;32665;-69
2023/03/29 06:45:46;;;;;;;;;;;;;;;6.79;32.41;101301.47;5370892;32;33842;-62
2023/03/29 06:48:50;;;;;;;;;;;;;;;6.93;32.98;101297.84;5357873;32;34553;-62
2023/03/29 06:51:52;;;;;;;;;;;;;;;6.35;33.64;101306.16;5371196;32;33118;-61
2023/03/29 06:54:54;;;;;;;;;;;;;;;7.10;32.69;101305.53;5361894;32;34247;-61
2023/03/29 06:57:56;;;;;;;;;;;;;;;6.00;34.54;101309.88;5360130;32;34853;-60
2023/03/29 07:01:03;;;;;;;;;;;;;;;6.94;32.46;101308.28;5371295;32;34329;-63
2023/03/29 07:04:08;;;;;;;;;;;;;;;7.40;31.68;101281.66;5350571;32;33571;-64
2023/03/29 07:07:18;;;;;;;;;;;;;;;6.76;32.03;101318.91;5363650;32;44900;-68
2023/03/29 07:10:25;;;;;;;;;;;;;;;7.09;31.27;101301.19;5360882;32;33155;-72
2023/03/29 07:13:27;;;;;;;;;;;;;;;7.99;30.19;101318.44;5371949;32;33039;-72
2023/03/29 07:16:31;;;;;;;;;;;;;;;7.76;29.82;101316.97;5364098;32;34690;-64
2023/03/29 07:19:33;;;;;;;;;;;;;;;8.64;28.37;101319.22;5358364;32;35031;-66
2023/03/29 07:22:36;;;;;;;;;;;;;;;7.22;28.70;101328.94;5375285;32;33071;-65
2023/03/29 07:25:38;;;;;;;;;;;;;;;7.88;27.91;101323.81;5362288;32;36772;-64
2023/03/29 07:28:40;;;;;;;;;;;;;;;8.25;27.91;101316.31;5375691;32;34749;-65
2023/03/29 07:31:43;;;;;;;;;;;;;;;8.00;28.36;101331.50;5358426;32;34689;-60
2023/03/29 07:34:46;;;;;;;;;;;;;;;8.80;27.26;101325.94;5375239;32;32965;-66
2023/03/29 07:37:48;;;;;;;;;;;;;;;8.12;27.41;101333.09;5361274;32;33651;-65
2023/03/29 07:40:53;;;;;;;;;;;;;;;8.41;27.72;101324.81;5362749;32;33870;-64
2023/03/29 07:43:55;;;;;;;;;;;;;;;8.95;26.47;101330.03;5365472;32;34432;-63
2023/03/29 07:46:58;;;;;;;;;;;;;;;8.61;26.51;101335.00;5358887;32;32935;-62
2023/03/29 07:50:00;;;;;;;;;;;;;;;10.34;24.50;101329.03;5374127;32;33580;-63
2023/03/29 07:53:02;;;;;;;;;;;;;;;8.98;25.61;101330.00;5355060;32;33487;-69
2023/03/29 07:56:05;;;;;;;;;;;;;;;9.42;25.78;101326.56;5363032;32;33106;-69
2023/03/29 07:59:07;;;;;;;;;;;;;;;9.91;24.87;101330.78;5368879;32;33295;-68
2023/03/29 08:02:11;;;;;;;;;;;;;;;10.62;24.04;101329.22;5356837;32;44446;-64
2023/03/29 08:05:13;;;;;;;;;;;;;;;9.74;24.79;101338.19;5344125;32;33464;-64
2023/03/29 08:08:24;;;;;;;;;;;;;;;10.69;23.93;101310.66;5356938;32;36306;-69
2023/03/29 08:11:26;;;;;;;;;;;;;;;11.09;23.14;101328.91;5375726;32;34370;-67
2023/03/29 08:14:28;;;;;;;;;;;;;;;10.19;24.42;101331.06;5362929;32;33158;-63
2023/03/29 08:17:30;;;;;;;;;;;;;;;9.65;24.39;101310.34;5365073;32;33156;-67
2023/03/29 08:20:32;;;;;;;;;;;;;;;10.11;23.92;101333.03;5371946;32;32992;-67
2023/03/29 08:23:34;;;;;;;;;;;;;;;10.26;24.21;101321.31;5355282;32;33367;-72
2023/03/29 08:26:36;;;;;;;;;;;;;;;9.56;24.78;101322.81;5372692;32;32835;-73
2023/03/29 08:29:38;;;;;;;;;;;;;;;9.82;24.20;101319.62;5357547;32;43313;-64
2023/03/29 08:32:40;;;;;;;;;;;;;;;8.65;26.38;101318.34;5373621;32;34043;-67
2023/03/29 08:35:42;;;;;;;;;;;;;;;9.47;25.73;101324.72;5345385;32;34343;-67
2023/03/29 08:38:44;;;;;;;;;;;;;;;10.10;25.87;101314.63;5340007;32;33062;-68
2023/03/29 08:41:58;;;;;;;;;;;;;;;10.24;25.61;101313.50;5364405;32;33182;-62
2023/03/29 08:45:02;;;;;;;;;;;;;;;9.26;26.94;101324.25;5363025;32;32010;-65
2023/03/29 08:48:04;;;;;;;;;;;;;;;11.02;24.98;101316.81;5374536;32;34437;-62
2023/03/29 08:51:20;;;;;;;;;;;;;;;10.09;25.80;101323.44;5356516;32;33250;-70
2023/03/29 08:54:23;;;;;;;;;;;;;;;12.20;23.85;101310.84;5371478;32;33065;-71
2023/03/29 08:57:30;;;;;;;;;;;;;;;13.52;22.31;101308.16;5363334;32;33078;-68
2023/03/29 09:00:38;;;;;;;;;;;;;;;13.68;22.15;101291.72;5361476;32;34671;-69
2023/03/29 09:03:45;;;;;;;;;;;;;;;10.97;23.59;101310.81;5367683;32;44497;-74
2023/03/29 09:06:47;;;;;;;;;;;;;;;13.49;22.06;101297.69;5352225;32;36147;-67
2023/03/29 09:09:49;;;;;;;;;;;;;;;14.17;20.82;101285.41;5377640;32;34541;-70
2023/03/29 09:12:51;;;;;;;;;;;;;;;13.07;21.83;101283.34;5360906;32;34221;-63
2023/03/29 09:16:05;;;;;;;;;;;;;;;13.88;21.52;101275.97;5367732;32;35929;-67
2023/03/29 09:19:26;;;;;;;;;;;;;;;16.00;19.19;101268.63;5374042;32;32037;-70
2023/03/29 09:22:28;;;;;;;;;;;;;;;15.75;19.18;101262.75;5362997;32;33247;-63
2023/03/29 09:25:43;;;;;;;;;;;;;;;15.03;19.75;101266.84;5371478;32;32961;-73
2023/03/29 09:28:59;;;;;;;;;;;;;;;13.23;21.16;101272.22;5364696;32;32888;-74
2023/03/29 09:32:02;;;;;;;;;;;;;;;15.18;19.44;101260.84;5363466;32;33327;-67
2023/03/29 09:35:18;;;;;;;;;;;;;;;13.16;21.07;101257.50;5369058;32;33041;-65
2023/03/29 09:38:21;;;;;;;;;;;;;;;13.25;21.72;101257.19;5339610;32;31876;-60
2023/03/29 09:41:25;;;;;;;;;;;;;;;14.37;20.85;101255.50;5375406;32;33678;-72
2023/03/29 09:44:31;;;;;;;;;;;;;;;13.53;21.99;101258.81;5347936;32;32979;-62
2023/03/29 09:47:38;;;;;;;;;;;;;;;11.65;22.61;101260.63;5365690;32;33023;-67
2023/03/29 09:50:52;;;;;;;;;;;;;;;12.00;23.02;101252.62;5369397;32;44489;-61
2023/03/29 09:53:55;;;;;;;;;;;;;;;12.77;21.71;101250.97;5345165;32;33128;-62
2023/03/29 09:56:58;;;;;;;;;;;;;;;13.78;21.36;101240.22;5368140;32;36345;-64
2023/03/29 10:00:04;;;;;;;;;;;;;;;14.09;20.76;101235.47;5364214;32;31813;-67
2023/03/29 10:03:06;;;;;;;;;;;;;;;16.64;18.31;101220.34;5375808;32;32816;-66
2023/03/29 10:06:11;;;;;;;;;;;;;;;15.87;19.00;101214.47;5348160;32;44466;-64
2023/03/29 10:09:14;;;;;;;;;;;;;;;16.95;18.04;101202.87;5364593;32;33057;-69
2023/03/29 10:12:16;;;;;;;;;;;;;;;15.95;19.02;101217.59;5371735;32;34528;-66
2023/03/29 10:15:18;;;;;;;;;;;;;;;15.57;19.22;101209.66;5364443;32;33058;-64
2023/03/29 10:18:31;;;;;;;;;;;;;;;15.75;19.10;101209.75;5372919;32;33120;-62
2023/03/29 10:21:33;;;;;;;;;;;;;;;19.08;16.14;101183.59;5360170;32;33711;-70
2023/03/29 10:24:35;;;;;;;;;;;;;;;16.00;19.16;101197.03;5367107;32;32896;-64
2023/03/29 10:27:39;;;;;;;;;;;;;;;18.37;16.62;101186.97;5377010;32;33127;-65
2023/03/29 10:30:41;;;;;;;;;;;;;;;19.82;15.71;101177.97;5362753;32;44534;-69
2023/03/29 10:33:44;;;;;;;;;;;;;;;16.63;17.78;101186.78;5377823;32;34568;-62
2023/03/29 10:36:57;;;;;;;;;;;;;;;17.89;17.35;101182.69;5358794;32;34122;-62
2023/03/29 10:39:59;;;;;;;;;;;;;;;22.38;14.07;101159.00;5366826;32;33462;-73
2023/03/29 10:43:19;;;;;;;;;;;;;;;22.82;13.24;101151.19;5362738;32;33137;-64
2023/03/29 10:46:22;;;;;;;;;;;;;;;21.24;14.42;101164.75;5361216;32;33194;-71
2023/03/29 10:49:24;;;;;;;;;;;;;;;23.01;13.09;101134.53;5372942;32;32979;-63
2023/03/29 10:52:28;;;;;;;;;;;;;;;16.41;18.39;101162.28;5359177;32;34188;-70
2023/03/29 10:55:34;;;;;;;;;;;;;;;19.28;16.45;101147.72;5371911;32;33648;-63
2023/03/29 10:58:36;;;;;;;;;;;;;;;18.37;17.04;101155.03;5363909;32;33730;-66
2023/03/29 11:01:50;;;;;;;;;;;;;;;17.59;17.84;101160.38;5351850;32;33394;-62
2023/03/29 11:04:58;;;;;;;;;;;;;;;16.67;18.77;101160.94;5346051;32;34952;-66
2023/03/29 11:08:07;;;;;;;;;;;;;;;16.20;19.43;101154.47;5349369;32;34548;-70
2023/03/29 11:11:28;;;;;;;;;;;;;;;16.84;18.76;101150.31;5369159;32;44469;-66
2023/03/29 11:14:34;;;;;;;;;;;;;;;14.15;22.38;101154.19;5361691;32;34795;-64
2023/03/29 11:17:36;;;;;;;;;;;;;;;16.54;19.88;101152.75;5370180;32;34430;-63
2023/03/29 11:20:45;;;;;;;;;;;;;;;17.41;18.82;101148.13;5378187;32;36922;-73
2023/03/29 11:23:49;;;;;;;;;;;;;;;15.57;20.20;101148.69;5362360;32;32844;-67
2023/03/29 11:27:09;;;;;;;;;;;;;;;18.53;17.88;101162.94;5353709;32;34464;-67
2023/03/29 11:30:22;;;;;;;;;;;;;;;17.87;18.37;101151.72;5358936;32;44717;-61
2023/03/29 11:33:43;;;;;;;;;;;;;;;17.27;18.75;101140.06;5369884;32;34883;-70
2023/03/29 11:37:04;;;;;;;;;;;;;;;16.78;19.41;101153.31;5369226;32;45930;-70
2023/03/29 11:40:14;;;;;;;;;;;;;;;16.01;20.57;101145.72;5346708;32;32965;-70
2023/03/29 11:43:18;;;;;;;;;;;;;;;18.89;17.80;101119.94;5367603;32;44902;-75
2023/03/29 11:46:20;;;;;;;;;;;;;;;18.82;17.72;101114.16;5363779;32;32508;-69
2023/03/29 11:49:28;;;;;;;;;;;;;;;17.79;18.30;101095.47;5367321;32;32879;-63
2023/03/29 11:52:35;;;;;;;;;;;;;;;20.95;15.72;101106.22;5367894;32;32874;-60
2023/03/29 11:55:37;;;;;;;;;;;;;;;20.80;14.99;101109.97;5352486;32;34075;-64
2023/03/29 11:58:41;;;;;;;;;;;;;;;20.62;15.53;101109.47;5364253;32;43798;-74
2023/03/29 12:02:01;;;;;;;;;;;;;;;18.87;17.38;101098.75;5358012;32;34558;-66
2023/03/29 12:05:06;;;;;;;;;;;;;;;20.74;15.57;101097.06;5347419;32;34961;-65
2023/03/29 12:08:15;;;;;;;;;;;;;;;17.15;19.62;101112.34;5365747;32;33578;-72
2023/03/29 12:11:18;;;;;;;;;;;;;;;17.14;19.04;101094.72;5351681;32;31987;-74
2023/03/29 12:14:36;;;;;;;;;;;;;;;17.67;18.71;101101.47;5376565;32;32869;-70
2023/03/29 12:17:43;;;;;;;;;;;;;;;19.04;17.35;101088.81;5360394;32;43691;-71
2023/03/29 12:20:45;;;;;;;;;;;;;;;19.12;17.45;101075.88;5365160;32;35604;-73
2023/03/29 12:23:47;;;;;;;;;;;;;;;20.04;16.34;101072.53;5355183;32;34218;-67
2023/03/29 12:26:52;;;;;;;;;;;;;;;19.28;17.32;101075.75;5363164;32;32842;-69
2023/03/29 12:30:06;;;;;;;;;;;;;;;19.71;17.28;101079.19;5374016;32;35580;-67
2023/03/29 12:33:12;;;;;;;;;;;;;;;19.16;17.58;101067.59;5350683;32;43330;-64
2023/03/29 12:36:19;;;;;;;;;;;;;;;20.31;16.81;101059.12;5372398;32;33531;-67
2023/03/29 12:39:22;;;;;;;;;;;;;;;16.55;19.26;101061.63;5353343;32;33307;-67
2023/03/29 12:42:24;;;;;;;;;;;;;;;20.29;17.03;101051.22;5371446;32;34323;-63
2023/03/29 12:45:32;;;;;;;;;;;;;;;20.02;16.92;101056.59;5360248;32;33346;-65
2023/03/29 12:48:39;;;;;;;;;;;;;;;16.12;20.56;101063.00;5354836;32;34330;-72
2023/03/29 12:51:41;;;;;;;;;;;;;;;17.83;19.15;101053.59;5369035;32;44386;-71
2023/03/29 12:54:51;;;;;;;;;;;;;;;16.24;20.71;101060.56;5363953;32;33007;-79
2023/03/29 12:58:00;;;;;;;;;;;;;;;16.48;20.56;101057.53;5378183;32;33995;-65
2023/03/29 13:01:06;;;;;;;;;;;;;;;16.41;20.88;101050.84;5367467;32;33128;-65
2023/03/29 13:04:17;;;;;;;;;;;;;;;14.40;22.93;101057.03;5343042;32;44559;-67
2023/03/29 13:07:22;;;;;;;;;;;;;;;17.43;19.95;101060.31;5376290;32;33057;-68
2023/03/29 13:10:29;;;;;;;;;;;;;;;18.58;19.25;101049.91;5373611;32;33667;-65
2023/03/29 13:13:31;;;;;;;;;;;;;;;19.27;18.51;101042.06;5383763;32;34359;-72
2023/03/29 13:16:33;;;;;;;;;;;;;;;19.34;18.44;101040.72;5367537;32;33712;-77
2023/03/29 13:19:35;;;;;;;;;;;;;;;17.75;20.38;101043.41;5367114;32;33392;-63
2023/03/29 13:22:44;;;;;;;;;;;;;;;17.93;20.05;101041.47;5373440;32;33791;-69
2023/03/29 13:25:59;;;;;;;;;;;;;;;17.01;21.03;101038.75;5355385;32;44713;-72
2023/03/29 13:29:15;;;;;;;;;;;;;;;16.30;21.94;101037.31;5372886;32;34001;-73
2023/03/29 13:32:34;;;;;;;;;;;;;;;15.09;23.49;101036.25;5358175;32;44386;-65
2023/03/29 13:35:41;;;;;;;;;;;;;;;15.07;23.83;101034.56;5367432;32;34310;-71
2023/03/29 13:38:47;;;;;;;;;;;;;;;13.45;26.16;101039.91;5372168;32;44810;-73
2023/03/29 13:41:50;;;;;;;;;;;;;;;14.18;25.11;101021.91;5366496;32;34367;-66
2023/03/29 13:44:52;;;;;;;;;;;;;;;13.60;26.40;101027.88;5364800;32;34058;-80
2023/03/29 13:48:13;;;;;;;;;;;;;;;14.90;25.30;101019.50;5364296;32;34229;-64
2023/03/29 13:51:35;;;;;;;;;;;;;;;15.43;24.23;101016.06;5361732;32;44591;-70
2023/03/29 13:54:37;;;;;;;;;;;;;;;15.36;23.95;101006.72;5378532;32;33246;-68
2023/03/29 13:57:48;;;;;;;;;;;;;;;14.42;25.57;101002.28;5371099;32;44545;-64
2023/03/29 14:01:11;;;;;;;;;;;;;;;13.44;26.89;101016.22;5377985;32;32096;-62
2023/03/29 14:04:15;;;;;;;;;;;;;;;14.93;25.15;101003.47;5356272;32;44558;-66
2023/03/29 14:07:19;;;;;;;;;;;;;;;14.67;25.31;101006.47;5359919;32;31198;-72
2023/03/29 14:10:31;;;;;;;;;;;;;;;15.30;23.96;100991.12;5340520;32;1016782;-67
2023/03/29 14:13:33;;;;;;;;;;;;;;;14.05;25.89;100993.34;5345174;32;33130;-70
2023/03/29 14:16:35;;;;;;;;;;;;;;;14.60;25.52;100997.97;5378978;32;33118;-68
2023/03/29 14:19:37;;;;;;;;;;;;;;;15.48;23.85;100998.16;5351427;32;32982;-75
2023/03/29 14:22:40;;;;;;;;;;;;;;;14.46;25.64;100988.03;5374552;32;44679;-69
2023/03/29 14:25:42;;;;;;;;;;;;;;;14.44;25.29;100983.72;5364214;32;33030;-63
2023/03/29 14:28:45;;;;;;;;;;;;;;;14.93;24.69;100984.09;5352964;32;32974;-76
2023/03/29 14:31:48;;;;;;;;;;;;;;;14.50;25.49;100989.63;5370613;32;32872;-78
2023/03/29 14:34:51;;;;;;;;;;;;;;;14.71;25.08;100982.47;5359289;32;32962;-77
2023/03/29 14:37:54;;;;;;;;;;;;;;;14.10;26.08;100990.47;5367683;32;33016;-77
2023/03/29 14:40:59;;;;;;;;;;;;;;;12.54;28.93;100990.72;5354546;32;33045;-73
2023/03/29 14:44:02;;;;;;;;;;;;;;;13.23;28.17;100992.41;5362943;32;33221;-74
2023/03/29 14:47:04;;;;;;;;;;;;;;;13.43;27.51;100998.66;5348031;32;33521;-76
2023/03/29 14:50:08;;;;;;;;;;;;;;;12.55;29.21;100993.28;5360573;32;33784;-77
2023/03/29 14:53:15;;;;;;;;;;;;;;;12.10;30.12;100988.78;5360768;32;44515;-79
2023/03/29 14:56:22;;;;;;;;;;;;;;;13.19;28.39;100979.34;5353977;32;33491;-78
2023/03/29 14:59:31;;;;;;;;;;;;;;;12.27;30.09;100993.44;5373694;32;32956;-77
2023/03/29 15:02:33;;;;;;;;;;;;;;;13.45;28.09;100983.59;5359111;32;33308;-76
2023/03/29 15:05:36;;;;;;;;;;;;;;;12.96;29.05;100985.56;5347816;32;33520;-74
2023/03/29 15:08:39;;;;;;;;;;;;;;;13.50;28.63;100984.28;5366994;32;42451;-72
2023/03/29 15:11:52;;;;;;;;;;;;;;;12.36;30.15;100985.19;5354619;32;34424;-77
2023/03/29 15:14:54;;;;;;;;;;;;;;;12.78;29.51;100978.38;5370848;32;33228;-74
2023/03/29 15:17:57;;;;;;;;;;;;;;;12.20;30.45;100963.81;5362699;32;33233;-76
2023/03/29 15:21:00;;;;;;;;;;;;;;;12.23;30.44;100978.66;5365915;32;34166;-77
2023/03/29 15:24:03;;;;;;;;;;;;;;;12.42;30.46;100976.19;5360899;32;32897;-72
2023/03/29 15:27:15;;;;;;;;;;;;;;;13.01;29.32;100965.16;5352084;32;34419;-73
2023/03/29 15:30:18;;;;;;;;;;;;;;;12.62;30.09;100972.81;5369892;32;44592;-74
2023/03/29 15:33:21;;;;;;;;;;;;;;;13.68;27.93;100962.37;5354599;32;34107;-73
2023/03/29 15:36:25;;;;;;;;;;;;;;;12.98;28.96;100971.38;5366605;32;34232;-77
2023/03/29 15:39:28;;;;;;;;;;;;;;;12.83;29.22;100969.37;5362558;32;33609;-75
2023/03/29 15:42:30;;;;;;;;;;;;;;;13.32;28.64;100972.69;5362035;32;35345;-73
2023/03/29 15:45:32;;;;;;;;;;;;;;;13.08;28.81;100937.59;5362189;32;33198;-77
2023/03/29 15:48:34;;;;;;;;;;;;;;;13.08;28.90;100955.19;5357217;32;34063;-74
2023/03/29 15:51:36;;;;;;;;;;;;;;;12.72;29.76;100942.53;5376050;32;33112;-77
2023/03/29 15:54:38;;;;;;;;;;;;;;;11.71;31.21;100953.28;5359255;32;33626;-76
2023/03/29 15:57:40;;;;;;;;;;;;;;;12.62;29.55;100941.16;5372937;32;34083;-77